Time;durP1;ratioP1;P1;durP2;ratioP2;P2;SDS_P1;SDS_P2;PMS_P1;PMS_P2;Temp;Humidity;BMP_temperature;BMP_pressure;BME280_temperature;BME280_humidity;BME280_pressure;Samples;Min_cycle;Max_cycle;Signal;HPM_P1;HPM_P2
2023/08/04 00:00:09;;;;;;;16.92;5.13;;;;;;;13.79;100.00;100927.19;5025211;28;20037;-71
2023/08/04 00:02:38;;;;;;;12.32;5.30;;;;;;;13.77;100.00;100925.59;5024235;28;20038;-71
2023/08/04 00:05:05;;;;;;;14.75;5.28;;;;;;;13.76;100.00;100923.88;5005627;28;20042;-71
2023/08/04 00:07:31;;;;;;;12.60;5.80;;;;;;;13.72;100.00;100928.72;5007105;28;20470;-72
2023/08/04 00:09:57;;;;;;;14.88;5.78;;;;;;;13.69;100.00;100926.25;5015606;28;20018;-72
2023/08/04 00:12:22;;;;;;;13.65;5.63;;;;;;;13.66;100.00;100931.09;5007027;28;20046;-72
2023/08/04 00:14:48;;;;;;;14.75;5.75;;;;;;;13.65;100.00;100926.63;5006674;28;20041;-71
2023/08/04 00:17:14;;;;;;;13.93;5.38;;;;;;;13.64;100.00;100930.38;5007262;28;20486;-71
2023/08/04 00:19:40;;;;;;;8.75;5.20;;;;;;;13.62;100.00;100932.38;5010054;28;20121;-71
2023/08/04 00:22:05;;;;;;;18.70;5.40;;;;;;;13.58;100.00;100934.50;5011017;28;20049;-72
2023/08/04 00:24:31;;;;;;;13.77;5.43;;;;;;;13.55;100.00;100933.88;5009813;28;20046;-71
2023/08/04 00:26:56;;;;;;;14.27;5.70;;;;;;;13.52;100.00;100937.72;5010419;28;20034;-72
2023/08/04 00:29:21;;;;;;;13.98;5.65;;;;;;;13.51;100.00;100941.44;5010683;28;20179;-72
2023/08/04 00:31:47;;;;;;;13.88;5.18;;;;;;;13.50;100.00;100945.19;5010864;28;20037;-71
2023/08/04 00:34:12;;;;;;;15.93;6.15;;;;;;;13.48;100.00;100942.59;5011458;28;20034;-72
2023/08/04 00:36:38;;;;;;;19.85;5.72;;;;;;;13.43;100.00;100942.09;5029874;28;20033;-71
2023/08/04 00:39:04;;;;;;;12.25;5.35;;;;;;;13.39;100.00;100945.22;5025244;28;20056;-71
2023/08/04 00:41:29;;;;;;;12.98;5.20;;;;;;;13.36;100.00;100950.94;5015700;28;20033;-71
2023/08/04 00:43:54;;;;;;;12.45;5.25;;;;;;;13.32;100.00;100954.91;5029902;28;20033;-71
2023/08/04 00:46:21;;;;;;;13.13;5.53;;;;;;;13.31;100.00;100953.16;5026068;28;20124;-71
2023/08/04 00:48:46;;;;;;;14.48;5.38;;;;;;;13.31;100.00;100950.44;5028764;28;20095;-71
2023/08/04 00:51:12;;;;;;;14.00;5.88;;;;;;;13.30;100.00;100955.03;5029926;28;20109;-71
2023/08/04 00:53:39;;;;;;;17.58;6.18;;;;;;;13.30;100.00;100955.03;5018094;28;20567;-72
2023/08/04 00:56:04;;;;;;;13.02;5.95;;;;;;;13.28;100.00;100957.00;5009122;28;20038;-71
2023/08/04 00:58:33;;;;;;;18.80;6.25;;;;;;;13.24;100.00;100963.72;5009462;28;20136;-71
2023/08/04 01:01:00;;;;;;;11.70;5.40;;;;;;;13.19;100.00;100955.88;5008954;28;20038;-71
2023/08/04 01:03:26;;;;;;;13.57;6.10;;;;;;;13.18;100.00;100965.06;5010568;28;20041;-71
2023/08/04 01:06:06;;;;;;;12.45;5.38;;;;;;;13.16;100.00;100967.06;5010742;28;20048;-71
2023/08/04 01:08:34;;;;;;;13.63;5.35;;;;;;;13.15;100.00;100964.44;5012416;28;20121;-71
2023/08/04 01:11:08;;;;;;;14.43;5.68;;;;;;;13.12;100.00;100971.03;5026014;28;20032;-71
2023/08/04 01:13:34;;;;;;;22.85;5.93;;;;;;;13.10;100.00;100973.00;5029102;28;20113;-71
2023/08/04 01:16:04;;;;;;;19.27;5.35;;;;;;;13.03;100.00;100966.31;5009199;28;20052;-71
2023/08/04 01:18:30;;;;;;;13.05;4.90;;;;;;;13.02;100.00;100981.84;5008344;28;20576;-71
2023/08/04 01:20:55;;;;;;;12.68;5.20;;;;;;;12.99;100.00;100973.88;5016082;28;20041;-71
2023/08/04 01:23:20;;;;;;;12.57;4.88;;;;;;;13.01;100.00;100980.09;5009379;28;20034;-71
2023/08/04 01:25:46;;;;;;;13.70;5.35;;;;;;;12.99;100.00;100975.75;5025651;28;20041;-71
2023/08/04 01:28:15;;;;;;;10.35;4.95;;;;;;;12.95;100.00;100974.25;5007408;28;20030;-71
2023/08/04 01:30:44;;;;;;;17.73;5.80;;;;;;;12.92;100.00;100978.13;5008476;28;20041;-70
2023/08/04 01:33:10;;;;;;;15.52;5.20;;;;;;;12.91;100.00;100979.06;5028660;28;20473;-71
2023/08/04 01:35:36;;;;;;;19.30;7.25;;;;;;;12.91;100.00;100980.94;5027245;28;20125;-71
2023/08/04 01:38:01;;;;;;;9.23;5.15;;;;;;;12.90;100.00;100979.22;5025948;28;20025;-71
2023/08/04 01:40:26;;;;;;;16.58;5.65;;;;;;;12.92;100.00;100986.31;5008717;28;20030;-71
2023/08/04 01:42:52;;;;;;;13.43;5.50;;;;;;;12.94;100.00;100989.78;5024910;28;20413;-72
2023/08/04 01:45:18;;;;;;;16.52;5.40;;;;;;;12.93;100.00;100987.16;5027695;28;20037;-71
2023/08/04 01:47:44;;;;;;;17.90;6.40;;;;;;;12.94;100.00;100986.19;5012448;28;20045;-71
2023/08/04 01:50:10;;;;;;;18.23;5.13;;;;;;;12.95;100.00;100987.91;5007602;28;20485;-70
2023/08/04 01:52:36;;;;;;;11.80;6.20;;;;;;;12.94;100.00;100992.50;5021023;28;20079;-70
2023/08/04 01:55:02;;;;;;;14.43;6.05;;;;;;;12.95;100.00;100999.69;5028168;28;20393;-71
2023/08/04 01:57:27;;;;;;;14.40;6.45;;;;;;;12.97;100.00;100992.25;5025809;28;20132;-71
2023/08/04 01:59:52;;;;;;;16.35;6.32;;;;;;;13.01;100.00;100996.50;5025868;28;20474;-71
2023/08/04 02:02:18;;;;;;;17.30;5.93;;;;;;;13.03;100.00;100999.09;5003812;28;20557;-71
2023/08/04 02:04:43;;;;;;;17.02;6.38;;;;;;;13.01;100.00;100995.63;5023993;28;20033;-71
2023/08/04 02:07:08;;;;;;;20.52;6.07;;;;;;;13.02;100.00;101000.97;5018667;28;20076;-71
2023/08/04 02:09:34;;;;;;;12.95;5.55;;;;;;;13.01;100.00;100990.16;5026217;28;20045;-71
2023/08/04 02:11:59;;;;;;;16.13;6.05;;;;;;;13.02;100.00;101000.09;5026933;28;20029;-71
2023/08/04 02:14:27;;;;;;;12.15;6.57;;;;;;;12.99;100.00;101003.06;5028593;28;20065;-71
2023/08/04 02:16:54;;;;;;;17.13;6.50;;;;;;;12.99;100.00;101006.66;5026975;28;20025;-71
2023/08/04 02:19:22;;;;;;;19.20;7.32;;;;;;;12.99;100.00;101005.78;5028351;28;20656;-71
2023/08/04 02:21:50;;;;;;;17.55;6.65;;;;;;;12.98;100.00;101014.97;5026020;28;20030;-71
2023/08/04 02:24:15;;;;;;;18.65;6.55;;;;;;;12.92;100.00;100999.97;5027594;28;20444;-71
2023/08/04 02:26:44;;;;;;;14.20;6.13;;;;;;;12.91;100.00;101006.38;5019069;28;20052;-71
2023/08/04 02:29:13;;;;;;;18.60;6.43;;;;;;;12.91;100.00;101008.25;5007892;28;20069;-71
2023/08/04 02:31:39;;;;;;;20.67;8.05;;;;;;;12.92;100.00;101012.75;5014713;28;20033;-71
2023/08/04 02:34:06;;;;;;;12.18;6.28;;;;;;;12.90;100.00;101012.84;5009653;28;20372;-72
2023/08/04 02:36:31;;;;;;;18.02;6.50;;;;;;;12.90;100.00;101014.72;5009940;28;20026;-71
2023/08/04 02:38:56;;;;;;;12.02;5.97;;;;;;;12.90;100.00;101017.44;5024697;28;20037;-71
2023/08/04 02:41:22;;;;;;;13.30;5.13;;;;;;;12.91;100.00;101014.56;5020192;28;20022;-70
2023/08/04 02:43:47;;;;;;;15.60;7.13;;;;;;;12.92;100.00;101012.75;5007088;28;20045;-70
2023/08/04 02:46:13;;;;;;;11.00;6.10;;;;;;;12.92;100.00;101024.53;5010597;28;20029;-70
2023/08/04 02:48:39;;;;;;;13.65;5.00;;;;;;;12.93;100.00;101019.94;5025944;28;20026;-71
2023/08/04 02:51:09;;;;;;;16.52;6.20;;;;;;;12.97;100.00;101019.56;5025848;28;20029;-70
2023/08/04 02:53:36;;;;;;;13.68;6.05;;;;;;;12.98;100.00;101012.25;5026973;28;20038;-70
2023/08/04 02:56:15;;;;;;;14.07;5.93;;;;;;;13.03;100.00;101015.47;5022374;28;20057;-71
2023/08/04 02:58:45;;;;;;;10.88;5.55;;;;;;;13.06;100.00;101017.97;5007525;28;20454;-71
2023/08/04 03:01:11;;;;;;;13.27;5.97;;;;;;;13.08;100.00;101020.56;5006873;28;20034;-70
2023/08/04 03:03:37;;;;;;;11.70;5.95;;;;;;;13.10;100.00;101013.09;5008153;28;20069;-71
2023/08/04 03:06:02;;;;;;;10.90;5.28;;;;;;;13.11;100.00;101017.59;5007862;28;20070;-70
2023/08/04 03:08:29;;;;;;;18.23;5.78;;;;;;;13.15;100.00;101022.69;5009566;28;20370;-71
2023/08/04 03:10:55;;;;;;;21.67;6.30;;;;;;;13.17;100.00;101031.63;5025187;28;20040;-71
2023/08/04 03:13:21;;;;;;;17.05;6.00;;;;;;;13.17;100.00;101026.16;5007606;28;20032;-71
2023/08/04 03:15:46;;;;;;;21.50;6.82;;;;;;;13.20;100.00;101031.38;5007495;28;20042;-71
2023/08/04 03:18:12;;;;;;;13.38;6.15;;;;;;;13.20;100.00;101025.94;5007856;28;20473;-71
2023/08/04 03:20:39;;;;;;;17.65;5.55;;;;;;;13.20;100.00;101023.19;5006227;28;20045;-71
2023/08/04 03:23:06;;;;;;;12.63;6.78;;;;;;;13.19;100.00;101020.56;5006284;28;20045;-70
2023/08/04 03:25:33;;;;;;;19.10;6.55;;;;;;;13.19;100.00;101034.22;5007461;28;20446;-71
2023/08/04 03:27:59;;;;;;;12.77;6.20;;;;;;;13.18;100.00;101032.50;5006423;28;20482;-71
2023/08/04 03:30:24;;;;;;;13.52;5.55;;;;;;;13.21;100.00;101035.84;5008187;28;20107;-71
2023/08/04 03:32:50;;;;;;;12.65;6.70;;;;;;;13.21;100.00;101040.44;5007558;28;20529;-71
2023/08/04 03:35:15;;;;;;;11.38;5.78;;;;;;;13.22;100.00;101032.16;5007269;28;20121;-71
2023/08/04 03:37:40;;;;;;;14.35;5.07;;;;;;;13.22;100.00;101032.16;5006115;28;20685;-71
2023/08/04 03:40:07;;;;;;;14.98;5.75;;;;;;;13.26;100.00;101035.53;5005702;28;20052;-71
2023/08/04 03:42:34;;;;;;;13.80;5.55;;;;;;;13.28;100.00;101030.78;5015498;28;20029;-71
2023/08/04 03:45:00;;;;;;;13.00;5.88;;;;;;;13.30;100.00;101037.00;5027326;28;20400;-72
2023/08/04 03:47:25;;;;;;;23.63;6.82;;;;;;;13.31;100.00;101030.56;5008351;28;20029;-71
2023/08/04 03:49:50;;;;;;;17.60;6.25;;;;;;;13.32;100.00;101025.94;5005849;28;20076;-71
2023/08/04 03:52:16;;;;;;;11.93;5.85;;;;;;;13.32;100.00;101040.47;5025462;28;20095;-71
2023/08/04 03:54:41;;;;;;;20.60;6.25;;;;;;;13.33;100.00;101039.47;5018370;28;20025;-71
2023/08/04 03:57:06;;;;;;;14.25;6.22;;;;;;;13.31;100.00;101038.75;5021085;28;20061;-71
2023/08/04 03:59:32;;;;;;;13.68;5.88;;;;;;;13.32;100.00;101036.88;5027805;28;20566;-71
2023/08/04 04:01:57;;;;;;;13.43;5.32;;;;;;;13.33;100.00;101047.69;5029104;28;20136;-71
2023/08/04 04:04:22;;;;;;;11.02;5.93;;;;;;;13.31;100.00;101046.06;5026213;28;20026;-71
2023/08/04 04:06:48;;;;;;;11.60;6.43;;;;;;;13.31;100.00;101048.81;5011052;28;20129;-71
2023/08/04 04:09:14;;;;;;;13.10;5.47;;;;;;;13.30;100.00;101045.22;5017042;28;20069;-71
2023/08/04 04:11:40;;;;;;;15.18;5.82;;;;;;;13.31;100.00;101048.81;5012809;28;20030;-71
2023/08/04 04:14:05;;;;;;;11.02;5.35;;;;;;;13.31;100.00;101048.81;5010420;28;20048;-71
2023/08/04 04:16:31;;;;;;;9.80;5.03;;;;;;;13.32;100.00;101042.34;5009943;28;20022;-71
2023/08/04 04:18:56;;;;;;;11.25;5.57;;;;;;;13.36;100.00;101052.03;5010906;28;20485;-70
2023/08/04 04:21:22;;;;;;;16.70;5.45;;;;;;;13.38;100.00;101055.50;4993887;28;20033;-71
2023/08/04 04:23:47;;;;;;;12.93;5.78;;;;;;;13.39;100.00;101058.13;5009001;28;20394;-71
2023/08/04 04:26:12;;;;;;;12.40;6.07;;;;;;;13.39;100.00;101058.13;5010024;28;20120;-71
2023/08/04 04:28:38;;;;;;;12.43;5.90;;;;;;;13.37;100.00;101056.50;5010634;28;20407;-71
2023/08/04 04:31:04;;;;;;;14.15;5.40;;;;;;;13.35;100.00;101064.84;5010681;28;20042;-71
2023/08/04 04:33:29;;;;;;;11.45;6.20;;;;;;;13.35;100.00;101062.09;5009466;28;20072;-71
2023/08/04 04:35:55;;;;;;;11.38;5.20;;;;;;;13.33;100.00;101057.75;5019131;28;20061;-71
2023/08/04 04:38:20;;;;;;;15.18;6.13;;;;;;;13.31;100.00;101055.13;5029225;28;20409;-71
2023/08/04 04:41:00;;;;;;;14.50;5.90;;;;;;;13.31;100.00;101057.88;5027972;28;20044;-71
2023/08/04 04:43:26;;;;;;;14.13;5.90;;;;;;;13.33;100.00;101068.66;5008770;28;20504;-70
2023/08/04 04:45:52;;;;;;;19.08;5.85;;;;;;;13.33;100.00;101066.81;5010802;28;20108;-70
2023/08/04 04:48:18;;;;;;;17.60;6.13;;;;;;;13.36;100.00;101076.63;5009262;28;20120;-71
2023/08/04 04:50:44;;;;;;;14.77;5.90;;;;;;;13.36;100.00;101080.22;5010374;28;20131;-71
2023/08/04 04:53:09;;;;;;;10.60;5.95;;;;;;;13.36;100.00;101079.38;5010171;28;20129;-71
2023/08/04 04:55:35;;;;;;;11.55;5.60;;;;;;;13.36;100.00;101080.22;4991805;28;20454;-70
2023/08/04 04:58:01;;;;;;;8.40;4.90;;;;;;;13.32;100.00;101084.19;5013336;28;20195;-71
2023/08/04 05:00:26;;;;;;;13.40;5.88;;;;;;;13.29;100.00;101081.72;5016030;28;20044;-72
2023/08/04 05:02:51;;;;;;;12.98;5.80;;;;;;;13.33;100.00;101087.78;5018519;28;20046;-71
2023/08/04 05:05:17;;;;;;;19.50;6.18;;;;;;;13.38;100.00;101091.94;5029278;28;20034;-71
2023/08/04 05:07:42;;;;;;;14.50;5.22;;;;;;;13.44;100.00;101093.28;5027517;28;20326;-71
2023/08/04 05:10:09;;;;;;;12.05;5.57;;;;;;;13.48;100.00;101097.53;5015006;28;20060;-71
2023/08/04 05:12:34;;;;;;;17.08;5.93;;;;;;;13.54;100.00;101094.28;5021124;28;20044;-70
2023/08/04 05:15:02;;;;;;;18.90;7.22;;;;;;;13.61;100.00;101102.84;5024037;28;20049;-70
2023/08/04 05:17:28;;;;;;;11.52;5.38;;;;;;;13.70;100.00;101108.44;5024560;28;20060;-71
2023/08/04 05:19:53;;;;;;;16.42;6.60;;;;;;;13.81;100.00;101109.44;5020804;28;20485;-70
2023/08/04 05:22:19;;;;;;;11.10;6.00;;;;;;;13.83;100.00;101094.63;5013991;28;20037;-71
2023/08/04 05:24:44;;;;;;;10.98;6.13;;;;;;;13.92;100.00;101115.75;5020289;28;20060;-71
2023/08/04 05:27:10;;;;;;;16.42;7.00;;;;;;;14.00;100.00;101121.47;5010341;28;20056;-71
2023/08/04 05:29:35;;;;;;;15.38;7.13;;;;;;;14.11;100.00;101112.38;5015009;28;20539;-71
2023/08/04 05:32:00;;;;;;;12.52;7.22;;;;;;;14.21;100.00;101113.34;5019133;28;20065;-71
2023/08/04 05:34:26;;;;;;;17.17;7.22;;;;;;;14.33;100.00;101116.06;5024689;28;20042;-70
2023/08/04 05:36:51;;;;;;;17.27;6.93;;;;;;;14.43;100.00;101117.88;5019218;28;20400;-71
2023/08/04 05:39:17;;;;;;;13.43;6.97;;;;;;;14.51;100.00;101122.75;5026065;28;20049;-71
2023/08/04 05:41:44;;;;;;;14.20;7.13;;;;;;;14.56;100.00;101112.28;5027162;28;20025;-70
2023/08/04 05:44:09;;;;;;;17.65;7.70;;;;;;;14.63;100.00;101120.84;5013493;28;20493;-71
2023/08/04 05:46:35;;;;;;;15.07;7.38;;;;;;;14.67;100.00;101114.09;5015887;28;20029;-70
2023/08/04 05:49:00;;;;;;;15.13;7.15;;;;;;;14.72;100.00;101120.91;5024022;28;20442;-70
2023/08/04 05:51:25;;;;;;;22.75;9.13;;;;;;;14.79;100.00;101130.34;5028539;28;20041;-70
2023/08/04 05:53:51;;;;;;;15.68;7.18;;;;;;;14.87;100.00;101134.28;5025403;28;20547;-71
2023/08/04 05:56:16;;;;;;;14.60;7.65;;;;;;;14.96;100.00;101133.50;5009764;28;20493;-71
2023/08/04 05:58:41;;;;;;;21.65;8.18;;;;;;;15.00;100.00;101132.22;5008448;28;20490;-71
2023/08/04 06:01:07;;;;;;;12.65;7.25;;;;;;;15.08;100.00;101126.97;5009137;28;20531;-71
2023/08/04 06:03:32;;;;;;;19.60;7.68;;;;;;;15.14;100.00;101131.03;5008562;28;20022;-71
2023/08/04 06:05:58;;;;;;;14.05;7.50;;;;;;;15.14;100.00;101133.78;5012446;28;20025;-71
2023/08/04 06:08:23;;;;;;;15.75;6.63;;;;;;;15.19;100.00;101145.22;5020923;28;20025;-71
2023/08/04 06:10:49;;;;;;;13.73;7.13;;;;;;;15.20;100.00;101145.09;5025572;28;20548;-71
2023/08/04 06:13:14;;;;;;;17.27;7.40;;;;;;;15.19;100.00;101145.22;5006875;28;20029;-71
2023/08/04 06:15:40;;;;;;;15.02;7.03;;;;;;;15.20;100.00;101147.84;5006619;28;20048;-71
2023/08/04 06:18:05;;;;;;;14.45;7.22;;;;;;;15.16;100.00;101143.63;5007580;28;20548;-71
2023/08/04 06:20:32;;;;;;;14.77;7.15;;;;;;;15.16;100.00;101153.72;5008526;28;20049;-71
2023/08/04 06:22:57;;;;;;;13.90;7.25;;;;;;;15.20;100.00;101161.53;5008456;28;20134;-71
2023/08/04 06:25:22;;;;;;;15.80;7.43;;;;;;;15.27;100.00;101154.50;5008531;28;20510;-71
2023/08/04 06:27:49;;;;;;;13.07;6.63;;;;;;;15.47;100.00;101157.38;5006255;28;20030;-71
2023/08/04 06:30:15;;;;;;;15.57;8.10;;;;;;;15.63;100.00;101162.38;5007219;28;20046;-71
2023/08/04 06:32:41;;;;;;;13.82;6.55;;;;;;;15.77;100.00;101171.16;5017270;28;20084;-71
2023/08/04 06:35:07;;;;;;;12.40;6.72;;;;;;;15.84;100.00;101170.59;5007917;28;20493;-71
2023/08/04 06:37:36;;;;;;;15.35;7.43;;;;;;;15.86;100.00;101174.09;5022443;28;20419;-71
2023/08/04 06:40:01;;;;;;;13.15;6.63;;;;;;;15.85;100.00;101167.69;5007324;28;20102;-71
2023/08/04 06:42:27;;;;;;;11.07;6.53;;;;;;;15.91;100.00;101169.91;5012888;28;20421;-71
2023/08/04 06:44:52;;;;;;;12.77;6.68;;;;;;;16.13;100.00;101177.06;5008419;28;20072;-71
2023/08/04 06:47:18;;;;;;;13.35;6.95;;;;;;;16.33;100.00;101175.25;5007740;28;20551;-71
2023/08/04 06:49:43;;;;;;;16.90;7.00;;;;;;;16.56;100.00;101179.50;5007978;28;20049;-71
2023/08/04 06:52:09;;;;;;;15.38;7.03;;;;;;;16.67;100.00;101180.38;5007124;28;20454;-71
2023/08/04 06:54:35;;;;;;;12.50;6.82;;;;;;;16.74;100.00;101185.22;5006237;28;20034;-71
2023/08/04 06:57:01;;;;;;;17.02;6.45;;;;;;;16.85;100.00;101180.59;5007611;28;20057;-71
2023/08/04 06:59:26;;;;;;;10.43;5.40;;;;;;;16.93;100.00;101180.75;5007443;28;20038;-70
2023/08/04 07:01:52;;;;;;;16.50;6.00;;;;;;;16.99;100.00;101186.53;5015647;28;20030;-71
2023/08/04 07:04:17;;;;;;;12.70;5.75;;;;;;;17.05;100.00;101187.81;5027505;28;20090;-72
2023/08/04 07:06:44;;;;;;;12.50;5.13;;;;;;;17.07;100.00;101185.81;5025552;28;20046;-71
2023/08/04 07:09:09;;;;;;;10.07;4.30;;;;;;;17.21;100.00;101188.13;5026705;28;20108;-71
2023/08/04 07:11:35;;;;;;;9.43;5.05;;;;;;;17.44;100.00;101198.78;5025494;28;20124;-71
2023/08/04 07:14:01;;;;;;;9.88;4.30;;;;;;;17.51;100.00;101200.81;5026976;28;20030;-72
2023/08/04 07:16:26;;;;;;;10.85;4.93;;;;;;;17.59;100.00;101200.06;5024748;28;20070;-72
2023/08/04 07:18:51;;;;;;;6.45;3.75;;;;;;;17.67;99.07;101213.06;5026885;28;20048;-72
2023/08/04 07:21:17;;;;;;;7.70;3.92;;;;;;;17.73;97.61;101209.75;5023478;28;20120;-71
2023/08/04 07:23:42;;;;;;;7.75;3.17;;;;;;;17.76;96.98;101213.09;5007391;28;20042;-71
2023/08/04 07:26:08;;;;;;;9.43;3.67;;;;;;;17.77;96.37;101217.59;5006846;28;20041;-72
2023/08/04 07:28:35;;;;;;;7.45;3.42;;;;;;;17.81;96.00;101215.38;5026618;28;20103;-72
2023/08/04 07:31:07;;;;;;;9.52;3.13;;;;;;;17.79;91.80;101214.69;5026294;28;20456;-71
2023/08/04 07:33:34;;;;;;;8.20;3.80;;;;;;;17.85;94.86;101219.59;5027292;28;20505;-72
2023/08/04 07:36:00;;;;;;;9.63;3.20;;;;;;;17.84;92.62;101215.09;5026069;28;20044;-72
2023/08/04 07:38:27;;;;;;;6.20;3.03;;;;;;;17.84;92.17;101221.47;5026161;28;20059;-72
2023/08/04 07:40:53;;;;;;;10.05;3.85;;;;;;;17.84;93.35;101224.22;5025862;28;20527;-71
2023/08/04 07:43:18;;;;;;;6.38;3.92;;;;;;;17.89;96.67;101215.53;5025171;28;20029;-72
2023/08/04 07:45:44;;;;;;;7.95;3.75;;;;;;;17.93;93.96;101219.72;5027519;28;20049;-72
2023/08/04 07:48:09;;;;;;;9.98;4.20;;;;;;;18.07;94.89;101223.88;5008159;28;20535;-72
2023/08/04 07:50:39;;;;;;;8.27;3.72;;;;;;;18.19;92.78;101228.19;5007256;28;20037;-72
2023/08/04 07:53:04;;;;;;;8.15;3.63;;;;;;;18.36;93.74;101226.50;5007189;28;20482;-72
2023/08/04 07:55:34;;;;;;;9.38;4.20;;;;;;;18.39;90.06;101230.84;5006971;28;20030;-73
2023/08/04 07:58:00;;;;;;;8.23;2.85;;;;;;;18.55;92.95;101237.41;5005201;28;20050;-72
2023/08/04 08:00:25;;;;;;;6.53;3.72;;;;;;;18.73;91.94;101234.72;5007529;28;20045;-70
2023/08/04 08:02:50;;;;;;;7.47;3.13;;;;;;;18.83;88.87;101238.28;5021469;28;20036;-71
2023/08/04 08:05:16;;;;;;;8.70;3.05;;;;;;;18.96;89.67;101235.16;5027003;28;20036;-72
2023/08/04 08:07:41;;;;;;;5.07;2.70;;;;;;;19.04;88.75;101240.78;5026751;28;20060;-72
2023/08/04 08:10:07;;;;;;;4.78;2.53;;;;;;;19.23;88.54;101238.88;5023240;28;20068;-73
2023/08/04 08:12:32;;;;;;;4.80;2.38;;;;;;;19.40;85.32;101248.16;5011840;28;20167;-71
2023/08/04 08:14:57;;;;;;;7.97;2.30;;;;;;;19.46;81.11;101236.50;5007089;28;20489;-72
2023/08/04 08:17:23;;;;;;;5.53;2.67;;;;;;;19.53;82.20;101234.81;5008147;28;20343;-72
2023/08/04 08:19:48;;;;;;;5.53;2.60;;;;;;;19.78;85.86;101236.81;5006818;28;20552;-72
2023/08/04 08:22:13;;;;;;;8.32;2.10;;;;;;;19.84;82.42;101244.44;5007009;28;20485;-73
2023/08/04 08:24:39;;;;;;;5.25;2.38;;;;;;;20.04;80.08;101238.69;5018355;28;20386;-72
2023/08/04 08:27:04;;;;;;;5.72;2.10;;;;;;;20.34;81.73;101248.38;5020652;28;20437;-72
2023/08/04 08:29:30;;;;;;;6.47;2.42;;;;;;;20.63;82.46;101246.09;5005024;28;20025;-71
2023/08/04 08:31:55;;;;;;;5.50;2.13;;;;;;;20.74;81.17;101255.97;5014264;28;20116;-72
2023/08/04 08:34:20;;;;;;;4.20;2.33;;;;;;;20.81;81.22;101253.44;5026713;28;20029;-73
2023/08/04 08:36:47;;;;;;;6.32;2.45;;;;;;;20.82;76.85;101256.03;5025149;28;20056;-72
2023/08/04 08:39:12;;;;;;;6.68;2.17;;;;;;;20.93;79.68;101265.91;5026629;28;20444;-73
2023/08/04 08:41:37;;;;;;;5.78;2.38;;;;;;;20.72;77.04;101262.72;5023257;28;20129;-73
2023/08/04 08:44:03;;;;;;;4.80;2.10;;;;;;;20.60;75.07;101263.00;5008989;28;20634;-73
2023/08/04 08:46:29;;;;;;;9.20;2.33;;;;;;;20.58;75.40;101267.84;5013790;28;20025;-72
2023/08/04 08:48:58;;;;;;;2.40;2.20;;;;;;;20.63;77.25;101270.97;5030798;28;20064;-71
2023/08/04 08:51:25;;;;;;;7.13;2.25;;;;;;;20.57;74.45;101268.03;5030431;28;20044;-71
2023/08/04 08:53:52;;;;;;;5.57;1.95;;;;;;;20.58;80.22;101275.28;5028490;28;20044;-71
2023/08/04 08:56:18;;;;;;;5.28;2.25;;;;;;;20.55;78.19;101279.22;5024909;28;20030;-71
2023/08/04 08:58:44;;;;;;;4.38;2.05;;;;;;;20.45;76.15;101278.47;5009693;28;20046;-72
2023/08/04 09:01:09;;;;;;;5.15;2.10;;;;;;;20.22;76.41;101280.94;5010335;28;20060;-72
2023/08/04 09:03:35;;;;;;;4.53;2.20;;;;;;;20.05;78.64;101284.59;5010067;28;20042;-72
2023/08/04 09:06:02;;;;;;;4.63;2.47;;;;;;;19.98;79.57;101284.41;5008908;28;20096;-71
2023/08/04 09:08:28;;;;;;;3.80;2.17;;;;;;;20.01;79.42;101285.97;5011751;28;20449;-71
2023/08/04 09:10:53;;;;;;;3.53;2.40;;;;;;;20.08;82.13;101287.91;5028814;28;20042;-71
2023/08/04 09:13:19;;;;;;;4.07;2.30;;;;;;;20.15;79.19;101287.28;5011003;28;20400;-73
2023/08/04 09:15:53;;;;;;;6.35;2.50;;;;;;;20.30;82.83;101285.66;5029697;28;20045;-72
2023/08/04 09:18:32;;;;;;;5.70;2.40;;;;;;;20.46;81.11;101290.38;5010678;28;20477;-73
2023/08/04 09:21:00;;;;;;;4.88;2.47;;;;;;;20.56;81.08;101281.00;4991925;28;20034;-71
2023/08/04 09:23:28;;;;;;;5.65;2.58;;;;;;;20.61;77.63;101288.75;5010161;28;20042;-73
2023/08/04 09:25:53;;;;;;;3.80;2.03;;;;;;;20.45;75.28;101284.00;5009227;28;20124;-72
2023/08/04 09:28:19;;;;;;;3.42;2.20;;;;;;;20.42;79.24;101289.84;5028481;28;20472;-72
2023/08/04 09:31:04;;;;;;;5.22;2.50;;;;;;;20.52;81.11;101293.41;5029569;28;20037;-72
2023/08/04 09:33:30;;;;;;;6.22;2.20;;;;;;;20.64;78.69;101294.84;5024565;28;20109;-71
2023/08/04 09:36:15;;;;;;;6.70;2.30;;;;;;;20.82;81.80;101282.81;5009575;28;20128;-71
2023/08/04 09:38:42;;;;;;;6.93;2.80;;;;;;;20.94;75.66;101291.66;5024559;28;20056;-72
2023/08/04 09:41:12;;;;;;;3.47;1.88;;;;;;;21.02;77.22;101292.56;5008308;28;20076;-72
2023/08/04 09:43:46;;;;;;;5.80;1.95;;;;;;;21.00;76.18;101302.94;5008867;28;20050;-71
2023/08/04 09:46:12;;;;;;;5.57;1.77;;;;;;;21.14;76.22;101298.66;5016434;28;20370;-73
2023/08/04 09:48:37;;;;;;;3.53;1.77;;;;;;;21.23;73.84;101296.78;5008062;28;20032;-73
2023/08/04 09:51:19;;;;;;;6.35;2.08;;;;;;;21.24;75.19;101292.97;5007889;28;20042;-72
2023/08/04 09:53:45;;;;;;;4.05;1.85;;;;;;;21.25;72.21;101286.38;5009126;28;20040;-72
2023/08/04 09:56:13;;;;;;;5.00;2.13;;;;;;;21.19;73.50;101299.00;4991982;28;20099;-72
2023/08/04 09:58:39;;;;;;;3.67;1.95;;;;;;;21.15;75.84;101297.59;5028283;28;20405;-71
2023/08/04 10:01:04;;;;;;;3.95;1.40;;;;;;;20.60;70.34;101298.09;5027890;28;20171;-72
2023/08/04 10:03:30;;;;;;;4.07;1.30;;;;;;;20.12;73.16;101310.56;5028490;28;20493;-72
2023/08/04 10:06:00;;;;;;;9.00;2.17;;;;;;;19.81;77.68;101321.19;5021824;28;21443;-71
2023/08/04 10:08:39;;;;;;;7.22;2.17;;;;;;;19.58;80.55;101310.63;5020929;28;20103;-72
2023/08/04 10:11:05;;;;;;;4.20;2.25;;;;;;;19.49;81.54;101299.66;5022313;28;20044;-71
2023/08/04 10:13:33;;;;;;;5.13;2.00;;;;;;;19.46;83.83;101303.59;5007978;28;20443;-71
2023/08/04 10:16:02;;;;;;;4.38;1.77;;;;;;;19.49;83.56;101303.31;5008248;28;20034;-71
2023/08/04 10:18:46;;;;;;;6.88;1.73;;;;;;;19.58;84.89;101302.34;5014508;28;20045;-71
2023/08/04 10:21:12;;;;;;;7.50;2.00;;;;;;;19.68;88.05;101301.41;5017801;28;20426;-73
2023/08/04 10:23:37;;;;;;;3.83;2.10;;;;;;;19.79;83.35;101298.41;5014439;28;20152;-72
2023/08/04 10:26:03;;;;;;;7.30;2.05;;;;;;;20.07;85.33;101301.91;5007851;28;20056;-72
2023/08/04 10:28:32;;;;;;;4.68;1.88;;;;;;;20.46;89.32;101298.69;5016591;28;20048;-72
2023/08/04 10:31:10;;;;;;;4.68;2.22;;;;;;;20.79;88.02;101288.66;5012609;28;20037;-71
2023/08/04 10:33:36;;;;;;;3.90;2.15;;;;;;;21.10;87.56;101297.25;5011376;28;20296;-71
2023/08/04 10:36:09;;;;;;;4.00;2.13;;;;;;;21.50;84.66;101288.19;5008686;28;20026;-71
2023/08/04 10:38:49;;;;;;;6.78;2.35;;;;;;;21.61;82.08;101298.94;5008755;28;20456;-72
2023/08/04 10:41:15;;;;;;;3.15;1.92;;;;;;;21.57;75.71;101305.84;5009670;28;20077;-71
2023/08/04 10:43:58;;;;;;;3.42;2.08;;;;;;;21.73;81.23;101298.56;5027775;28;20035;-70
2023/08/04 10:46:24;;;;;;;5.13;2.20;;;;;;;21.77;77.57;101308.28;5024585;28;20523;-73
2023/08/04 10:48:49;;;;;;;6.05;1.90;;;;;;;21.71;74.22;101306.19;5028335;28;20032;-73
2023/08/04 10:51:15;;;;;;;3.40;1.58;;;;;;;21.84;78.03;101301.88;5026219;28;20112;-73
2023/08/04 10:53:40;;;;;;;5.07;1.92;;;;;;;22.06;79.41;101302.22;5028009;28;20408;-72
2023/08/04 10:56:07;;;;;;;3.55;1.80;;;;;;;22.47;79.44;101314.09;5025236;28;20048;-72
2023/08/04 10:58:32;;;;;;;6.15;1.77;;;;;;;22.78;70.99;101319.72;5006133;28;20449;-73
2023/08/04 11:00:57;;;;;;;4.10;1.42;;;;;;;23.04;73.83;101313.94;5007625;28;20037;-71
2023/08/04 11:03:28;;;;;;;1.92;1.48;;;;;;;23.30;70.29;101315.50;5008524;28;20083;-72
2023/08/04 11:05:55;;;;;;;2.97;1.42;;;;;;;23.50;74.92;101313.09;5008765;28;20374;-72
2023/08/04 11:08:22;;;;;;;4.80;2.10;;;;;;;23.68;65.99;101319.25;5021405;28;20084;-73
2023/08/04 11:10:52;;;;;;;4.15;1.60;;;;;;;23.83;68.26;101322.13;5025748;28;20042;-71